Flight Track Log - Related Links

Times and Time Zones

All times are in EDT time to prevent confusion due to time zone crossing. See the RPA3284 flight status page for this flight to view local times or setup timezone preferences in your user account.

Time Position Orientation Groundspeed Altitude Reporting Facility
EDT Latitude Longitude Course Direction KTS MPH feet Rate Location/Type
Fri 03:53:28 PM 41.7331 -71.4219 65° Northeast 153 176 600  Level Boston Center
Fri 03:55:10 PM 41.7717 -71.3100 65° Northeast 189 217 3,900 2,138 Climbing Boston Center
Fri 03:56:08 PM 41.7333 -71.2494 130° Southeast 230 265 6,300 2,797 Climbing Boston Center
Fri 03:57:08 PM 41.6458 -71.2483 179° South 239 275 9,400 2,281 Climbing Boston Center
Fri 03:58:09 PM 41.5708 -71.2497 181° South 292 336 10,900 1,918 Climbing Boston Center
Fri 03:59:10 PM 41.4625 -71.2489 180° South 342 394 13,300 2,118 Climbing Boston Center
Fri 04:00:08 PM 41.3731 -71.2506 181° South 354 407 15,100 1,932 Climbing Boston Center
Fri 04:01:08 PM 41.2606 -71.2719 188° South 365 420 17,100 1,587 Climbing Boston Center
Fri 04:02:09 PM 41.2011 -71.3614 229° Southwest 354 407 18,300 1,339 Climbing Boston Center
Fri 04:03:09 PM 41.1314 -71.4922 235° Southwest 371 427 19,800 843 Climbing Boston Center
Fri 04:04:10 PM 41.0656 -71.5839 226° Southwest 383 441 20,000 101 Climbing Boston Center
Fri 04:05:08 PM 40.9978 -71.7222 237° Southwest 388 447 20,000  Level Boston Center
Fri 04:06:08 PM 40.9317 -71.8358 232° Southwest 402 463 20,000  Level Boston Center
Fri 04:07:08 PM 40.8697 -71.9322 230° Southwest 402 463 20,000  Level Boston Center
Fri 04:08:09 PM 40.8014 -72.0481 232° Southwest 396 456 20,000  Level Boston Center
Fri 04:09:10 PM 40.7267 -72.1689 231° Southwest 396 456 20,000  Level Boston Center
Fri 04:10:10 PM 40.6561 -72.2814 230° Southwest 402 463 20,000  Level Boston Center
Fri 04:11:07 PM 40.5914 -72.3936 233° Southwest 402 463 20,000  Level Boston Center
Fri 04:12:09 PM 40.5289 -72.5083 234° Southwest 397 457 20,000  Level Boston Center
Fri 04:14:33 PM 40.3633 -72.7814 232° Southwest 396 456 20,000  Level New York Center
Fri 04:15:33 PM 40.2989 -72.8911 232° Southwest 396 456 20,000  Level New York Center
Fri 04:16:33 PM 40.2303 -73.0058 232° Southwest 396 456 20,000  Level New York Center
Fri 04:17:33 PM 40.1633 -73.1178 232° Southwest 396 456 20,000  Level New York Center
Fri 04:18:33 PM 40.0964 -73.2319 233° Southwest 396 456 20,000  Level New York Center
Fri 04:19:33 PM 40.0275 -73.3381 230° Southwest 391 450 20,000  Level New York Center
Fri 04:20:33 PM 39.9756 -73.4281 233° Southwest 391 450 20,000  Level New York Center
Fri 04:21:33 PM 39.8911 -73.5575 230° Southwest 391 450 20,000  Level New York Center
Fri 04:22:33 PM 39.8239 -73.6683 232° Southwest 391 450 20,000  Level New York Center
Fri 04:23:34 PM 39.7581 -73.7697 230° Southwest 377 434 20,000 -645 Level Washington Center
Fri 04:24:34 PM 39.6908 -73.8764 231° Southwest 372 428 18,700 -1,627 Descending Washington Center
Fri 04:25:32 PM 39.6256 -73.9803 231° Southwest 377 434 16,800 -2,017 Descending Washington Center
Fri 04:26:33 PM 39.5603 -74.0814 230° Southwest 377 434 14,700 -1,438 Descending Washington Center
Fri 04:27:33 PM 39.5261 -74.1978 249° West 352 405 13,900 -397 Descending Washington Center
Fri 04:28:34 PM 39.5275 -74.3244 271° West 345 397 13,900 -694 Level Washington Center
Fri 04:29:34 PM 39.5289 -74.4533 271° West 351 404 12,500 -1,450 Descending Washington Center
Fri 04:30:34 PM 39.5319 -74.5717 272° West 344 396 11,000 -1,154 Descending Washington Center
Fri 04:32:36 PM 39.5333 -74.8000 271° West 285 328 9,000 -1,055 Descending Philadelphia TRACON
Fri 04:33:36 PM 39.5333 -74.9000 270° West 281 323 7,800 -1,000 Descending Philadelphia TRACON
Fri 04:34:36 PM 39.5333 -74.9833 270° West 268 308 7,000 -400 Descending Philadelphia TRACON
Fri 04:35:36 PM 39.5167 -75.0667 255° West 225 259 7,000 -350 Level Philadelphia TRACON
Fri 04:36:36 PM 39.4667 -75.1333 226° Southwest 232 267 6,300 -500 Descending Philadelphia TRACON
Fri 04:37:36 PM 39.5167 -75.1500 346° North 223 257 6,000 -157 Descending Philadelphia TRACON
Fri 04:38:31 PM 39.5667 -75.1333 14° North 227 261 6,000  Level Philadelphia TRACON
Fri 04:39:31 PM 39.6333 -75.0833 30° Northeast 226 260 6,000 -50 Level Philadelphia TRACON
Fri 04:40:31 PM 39.6833 -75.0667 14° North 206 237 5,900  Descending Philadelphia TRACON
Fri 04:41:36 PM 39.7333 -75.0833 346° North 178 205 6,000 50 Climbing Philadelphia TRACON
Fri 04:42:31 PM 39.7833 -75.0833 360° North 180 207 6,000  Level Philadelphia TRACON
Fri 04:43:31 PM 39.8167 -75.0333 49° Northeast 187 215 6,000 -650 Level Philadelphia TRACON
Fri 04:44:31 PM 39.8333 -74.9833 67° East 179 206 4,700 -1,000 Descending Philadelphia TRACON
Fri 04:45:31 PM 39.8333 -74.9167 90° East 183 211 4,000 -571 Descending Philadelphia TRACON
Fri 04:46:37 PM 39.8833 -74.9167 360° North 170 196 3,500 -480 Descending Philadelphia TRACON
Fri 04:47:36 PM 39.9333 -74.9333 346° North 177 204 3,000 -288 Descending Philadelphia TRACON
Fri 04:48:42 PM 39.9167 -75.0000 252° West 179 206 2,900 -248 Descending Philadelphia TRACON
Fri 04:49:37 PM 39.9000 -75.0667 252° West 172 198 2,500 -730 Descending Philadelphia TRACON
Fri 04:50:37 PM 39.9000 -75.1167 270° West 172 198 1,500 -850 Descending Philadelphia TRACON
Fri 04:51:37 PM 39.8833 -75.1667 247° West 122 140 800 -650 Descending Philadelphia TRACON
Fri 04:52:37 PM 39.8833 -75.2167 270° West 131 151 200 -600 Descending Philadelphia TRACON
Fri 04:54:00 PM 39.8667 -75.2333 North  Level FlightAware Approximate
Fri 05:01:00 PM 39.8722 -75.2409 North  Level Estimated

Login

Don't have an account? Register now (free) for customized features, flight alerts, and more!